createdAt,value
2022-09-06T00:00:18.219Z,25.13
2022-09-06T00:02:56.287Z,28.53
2022-09-06T00:05:31.600Z,27.07
2022-09-06T00:08:05.893Z,25.10
2022-09-06T00:10:40.098Z,29.00
2022-09-06T00:13:14.803Z,27.67
2022-09-06T00:15:48.752Z,24.93
2022-09-06T00:18:22.819Z,26.17
2022-09-06T00:20:59.218Z,24.13
2022-09-06T00:23:32.069Z,28.00
2022-09-06T00:26:10.188Z,30.67
2022-09-06T00:28:43.745Z,21.73
2022-09-06T00:31:19.496Z,23.37
2022-09-06T00:33:53.751Z,30.23
2022-09-06T00:36:29.587Z,24.02
2022-09-06T00:41:53.266Z,22.67
2022-09-06T00:44:26.962Z,26.95
2022-09-06T00:47:00.804Z,28.25
2022-09-06T00:49:39.103Z,22.95
2022-09-06T00:52:20.455Z,23.50
2022-09-06T00:54:55.959Z,22.23
2022-09-06T00:57:30.664Z,25.77
2022-09-06T01:00:06.178Z,24.90
2022-09-06T01:02:41.414Z,23.17
2022-09-06T01:05:16.463Z,21.05
2022-09-06T01:08:10.399Z,24.45
2022-09-06T01:10:57.767Z,23.65
2022-09-06T01:13:42.250Z,17.92
2022-09-06T01:16:22.763Z,19.92
2022-09-06T01:19:23.388Z,17.33
2022-09-06T01:22:01.375Z,23.33
2022-09-06T01:25:13.993Z,15.80
2022-09-06T01:28:21.270Z,18.33
2022-09-06T01:31:21.644Z,19.95
2022-09-06T01:34:15.157Z,19.20
2022-09-06T01:37:09.330Z,14.35
2022-09-06T01:39:44.846Z,18.23
2022-09-06T01:42:26.585Z,20.83
2022-09-06T01:45:06.046Z,15.27
2022-09-06T01:47:46.906Z,16.35
2022-09-06T01:50:49.916Z,19.75
2022-09-06T01:53:41.147Z,19.17
2022-09-06T01:56:25.476Z,15.25
2022-09-06T01:59:16.317Z,19.85
2022-09-06T02:02:01.595Z,17.90
2022-09-06T02:04:39.710Z,12.73
2022-09-06T02:07:20.310Z,19.02
2022-09-06T02:09:58.162Z,14.52
2022-09-06T02:12:33.821Z,19.25
2022-09-06T02:15:11.518Z,15.90
2022-09-06T02:17:51.339Z,20.45
2022-09-06T02:20:29.337Z,18.02
2022-09-06T02:25:57.504Z,17.10
2022-09-06T02:28:31.881Z,16.10
2022-09-06T02:31:08.103Z,16.50
2022-09-06T02:33:44.169Z,21.80
2022-09-06T02:36:19.246Z,16.33
2022-09-06T02:38:52.788Z,19.88
2022-09-06T02:41:27.726Z,17.15
2022-09-06T02:44:02.625Z,20.55
2022-09-06T02:46:36.645Z,18.42
2022-09-06T02:49:12.073Z,20.20
2022-09-06T02:51:45.281Z,15.80
2022-09-06T02:54:18.878Z,14.68
2022-09-06T02:56:55.012Z,16.23
2022-09-06T02:59:29.151Z,17.73
2022-09-06T03:02:03.004Z,20.60
2022-09-06T03:04:39.174Z,19.00
2022-09-06T03:07:14.153Z,14.65
2022-09-06T03:09:48.172Z,14.30
2022-09-06T03:12:21.280Z,12.90
2022-09-06T03:14:55.244Z,15.75
2022-09-06T03:17:28.494Z,14.88
2022-09-06T03:20:07.373Z,15.05
2022-09-06T03:22:42.909Z,14.15
2022-09-06T03:25:19.442Z,14.57
2022-09-06T03:27:53.087Z,13.73
2022-09-06T03:30:27.043Z,8.45
2022-09-06T03:33:02.936Z,16.85
2022-09-06T03:35:38.498Z,15.52
2022-09-06T03:38:11.787Z,18.85
2022-09-06T03:40:47.140Z,12.43
2022-09-06T03:43:23.348Z,11.50
2022-09-06T03:45:58.153Z,15.18
2022-09-06T03:48:33.419Z,14.73
2022-09-06T03:51:08.913Z,14.38
2022-09-06T03:53:42.676Z,13.63
2022-09-06T03:56:16.527Z,13.63
2022-09-06T03:58:50.442Z,14.77
2022-09-06T04:01:24.017Z,20.70
2022-09-06T04:03:58.032Z,14.73
2022-09-06T04:06:36.923Z,19.10
2022-09-06T04:09:11.043Z,19.10
2022-09-06T04:11:45.306Z,15.98
2022-09-06T04:14:19.076Z,18.58
2022-09-06T04:16:53.557Z,13.85
2022-09-06T04:19:27.419Z,14.88
2022-09-06T04:22:03.014Z,15.18
2022-09-06T04:24:37.195Z,19.45
2022-09-06T04:27:10.762Z,19.13
2022-09-06T04:29:48.724Z,16.65
2022-09-06T04:32:24.105Z,16.65
2022-09-06T04:34:57.468Z,16.17
2022-09-06T04:37:32.597Z,18.98
2022-09-06T04:40:08.231Z,16.75
2022-09-06T04:42:41.378Z,20.55
2022-09-06T04:45:16.539Z,15.60
2022-09-06T04:47:51.786Z,14.43
2022-09-06T04:50:25.844Z,15.25
2022-09-06T04:53:15.547Z,20.63
2022-09-06T04:55:49.772Z,15.82
2022-09-06T04:58:26.107Z,19.23
2022-09-06T05:01:17.659Z,16.52
2022-09-06T05:03:56.200Z,16.27
2022-09-06T05:06:31.223Z,17.63
2022-09-06T05:09:07.536Z,13.05
2022-09-06T05:11:41.196Z,14.98
2022-09-06T05:14:16.175Z,14.60
2022-09-06T05:16:50.543Z,14.70
2022-09-06T05:19:24.022Z,17.08
2022-09-06T05:21:57.862Z,15.98
2022-09-06T05:24:34.314Z,15.50
2022-09-06T05:27:08.653Z,12.75
2022-09-06T05:29:42.376Z,17.05
2022-09-06T05:32:16.160Z,11.98
2022-09-06T05:34:52.421Z,13.20
2022-09-06T05:37:25.557Z,13.88
2022-09-06T05:40:01.717Z,11.68
2022-09-06T05:42:35.665Z,14.80
2022-09-06T05:45:10.685Z,13.63
2022-09-06T05:47:43.855Z,14.95
2022-09-06T05:50:17.669Z,11.80
2022-09-06T05:52:51.404Z,11.65
2022-09-06T05:55:26.594Z,8.32
2022-09-06T05:57:59.856Z,11.18
2022-09-06T06:00:38.775Z,12.30
2022-09-06T06:03:11.626Z,11.55
2022-09-06T06:05:50.134Z,12.50
2022-09-06T06:08:24.096Z,15.68
2022-09-06T06:11:06.142Z,10.38
2022-09-06T06:13:41.147Z,10.18
2022-09-06T06:16:16.848Z,14.98
2022-09-06T06:18:52.591Z,12.25
2022-09-06T06:21:28.151Z,15.63
2022-09-06T06:26:52.156Z,14.48
2022-09-06T06:29:34.786Z,11.43
2022-09-06T06:32:08.951Z,9.48
2022-09-06T06:35:07.198Z,14.40
2022-09-06T06:37:40.730Z,11.82
2022-09-06T06:40:20.489Z,15.43
2022-09-06T06:42:55.787Z,10.32
2022-09-06T06:45:32.242Z,13.95
2022-09-06T06:48:05.304Z,11.95
2022-09-06T06:50:38.800Z,12.75
2022-09-06T06:53:12.969Z,11.15
2022-09-06T06:55:55.620Z,13.70
2022-09-06T06:58:30.763Z,12.05
2022-09-06T07:01:04.483Z,15.18
2022-09-06T07:03:38.187Z,13.02
2022-09-06T07:06:13.372Z,16.00
2022-09-06T07:08:47.795Z,12.55
2022-09-06T07:11:24.396Z,12.05
2022-09-06T07:14:00.080Z,12.38
2022-09-06T07:16:37.140Z,14.27
2022-09-06T07:22:05.696Z,14.35
2022-09-06T07:24:40.839Z,13.65
2022-09-06T07:30:10.692Z,15.15
2022-09-06T07:32:43.722Z,12.43
2022-09-06T07:35:17.506Z,18.35
2022-09-06T07:37:59.230Z,15.23
2022-09-06T07:40:36.363Z,13.52
2022-09-06T07:43:10.333Z,15.95
2022-09-06T07:45:46.853Z,13.82
2022-09-06T07:48:20.505Z,13.55
2022-09-06T07:50:58.863Z,15.30
2022-09-06T07:53:33.639Z,15.13
2022-09-06T07:56:10.122Z,10.82
2022-09-06T07:58:44.635Z,13.48
2022-09-06T08:01:32.556Z,14.32
2022-09-06T08:04:07.917Z,18.58
2022-09-06T08:09:39.060Z,13.18
2022-09-06T08:12:13.377Z,15.88
2022-09-06T08:14:46.616Z,15.52
2022-09-06T08:17:21.882Z,13.18
2022-09-06T08:19:55.443Z,14.38
2022-09-06T08:22:29.457Z,10.15
2022-09-06T08:25:03.716Z,13.10
2022-09-06T08:27:37.133Z,13.73
2022-09-06T08:30:11.693Z,14.75
2022-09-06T08:32:46.822Z,16.42
2022-09-06T08:35:20.543Z,14.55
2022-09-06T08:37:54.129Z,13.63
2022-09-06T08:40:31.015Z,18.75
2022-09-06T08:43:04.977Z,14.60
2022-09-06T08:45:40.496Z,14.18
2022-09-06T08:48:15.556Z,10.48
2022-09-06T08:51:00.032Z,12.40
2022-09-06T08:53:33.525Z,13.98
2022-09-06T08:56:26.261Z,25.45
2022-09-06T08:59:08.134Z,10.60
2022-09-06T09:01:49.798Z,14.27
2022-09-06T09:04:53.653Z,16.60
2022-09-06T09:07:39.610Z,11.20
2022-09-06T09:10:18.875Z,14.40
2022-09-06T09:12:52.811Z,15.77
2022-09-06T09:15:37.058Z,14.35
2022-09-06T09:18:13.209Z,11.85
2022-09-06T09:20:47.945Z,17.40
2022-09-06T09:23:21.417Z,19.80
2022-09-06T09:26:00.405Z,14.07
2022-09-06T09:28:34.818Z,15.73
2022-09-06T09:31:08.568Z,12.88
2022-09-06T09:33:42.503Z,15.90
2022-09-06T09:36:37.495Z,15.15
2022-09-06T09:39:16.215Z,17.35
2022-09-06T09:41:55.118Z,14.07
2022-09-06T09:44:31.078Z,15.00
2022-09-06T09:47:04.661Z,17.60
2022-09-06T09:49:39.014Z,15.38
2022-09-06T09:52:17.260Z,19.42
2022-09-06T09:54:55.109Z,19.73
2022-09-06T09:57:29.854Z,17.00
2022-09-06T10:00:04.869Z,22.77
2022-09-06T10:02:40.611Z,18.00
2022-09-06T10:05:24.243Z,34.08
2022-09-06T10:08:01.395Z,16.20
2022-09-06T10:10:38.302Z,22.20
2022-09-06T10:13:24.815Z,11.95
2022-09-06T10:16:04.226Z,20.48
2022-09-06T10:18:39.611Z,17.20
2022-09-06T10:21:17.185Z,19.02
2022-09-06T10:24:27.457Z,19.88
2022-09-06T10:27:05.716Z,19.98
2022-09-06T10:29:49.081Z,22.05
2022-09-06T10:32:37.856Z,22.33
2022-09-06T10:35:24.207Z,22.08
2022-09-06T10:38:25.275Z,22.85
2022-09-06T10:41:14.624Z,22.10
2022-09-06T10:43:58.681Z,22.00
2022-09-06T10:46:35.908Z,20.37
2022-09-06T10:49:13.585Z,18.63
2022-09-06T10:51:51.096Z,27.73
2022-09-06T10:54:27.020Z,27.60
2022-09-06T10:57:06.350Z,24.27
2022-09-06T10:59:43.333Z,22.47
2022-09-06T11:02:31.197Z,24.90
2022-09-06T11:11:37.551Z,34.43
2022-09-06T11:14:17.459Z,33.90
2022-09-06T11:16:55.786Z,28.67
2022-09-06T11:19:32.373Z,29.33
2022-09-06T11:22:40.369Z,32.83
2022-09-06T11:25:43.720Z,36.73
2022-09-06T11:28:23.486Z,41.53
2022-09-06T11:31:05.798Z,39.27
2022-09-06T11:33:41.426Z,39.83
2022-09-06T11:36:33.525Z,39.93
2022-09-06T11:39:09.866Z,40.07
2022-09-06T11:41:44.732Z,42.47
2022-09-06T11:44:37.848Z,46.47
2022-09-06T11:47:14.199Z,46.53
2022-09-06T11:49:47.234Z,52.23
2022-09-06T11:53:01.928Z,55.37
2022-09-06T11:55:42.976Z,48.47
2022-09-06T11:58:32.245Z,55.53
2022-09-06T12:01:43.040Z,55.63
2022-09-06T12:04:18.061Z,49.17
2022-09-06T12:07:13.420Z,59.80
2022-09-06T12:09:51.595Z,53.33
2022-09-06T12:12:45.346Z,58.97
2022-09-06T12:15:36.949Z,57.77
2022-09-06T12:18:10.605Z,61.17
2022-09-06T12:21:07.933Z,58.67
2022-09-06T12:23:50.831Z,63.57
2022-09-06T12:26:58.015Z,76.60
2022-09-06T12:29:32.358Z,62.63
2022-09-06T12:32:13.033Z,61.83
2022-09-06T12:37:58.929Z,67.47
2022-09-06T12:40:36.710Z,60.23
2022-09-06T12:43:13.020Z,62.27
2022-09-06T12:45:49.582Z,61.67
2022-09-06T12:48:42.844Z,57.27
2022-09-06T12:51:30.985Z,54.67
2022-09-06T12:54:08.237Z,57.50
2022-09-06T12:56:41.924Z,61.67
2022-09-06T12:59:23.168Z,63.07
2022-09-06T13:02:04.282Z,62.47
2022-09-06T13:04:43.473Z,68.30
2022-09-06T13:07:22.002Z,70.97
2022-09-06T13:10:01.917Z,84.87
2022-09-06T13:12:38.666Z,73.03
2022-09-06T13:15:23.732Z,75.37
2022-09-06T13:17:59.279Z,79.33
2022-09-06T13:20:36.758Z,71.03
2022-09-06T13:23:24.536Z,86.90
2022-09-06T13:25:59.476Z,79.80
2022-09-06T13:28:52.638Z,78.63
2022-09-06T13:31:28.831Z,75.73
2022-09-06T13:34:03.550Z,75.30
2022-09-06T13:36:37.922Z,81.40
2022-09-06T13:39:11.575Z,76.67
2022-09-06T13:41:48.115Z,73.43
2022-09-06T13:44:33.323Z,74.73
2022-09-06T13:47:07.697Z,71.97
2022-09-06T13:49:41.677Z,79.67
2022-09-06T13:52:21.709Z,80.77
2022-09-06T13:55:04.853Z,90.03
2022-09-06T13:57:43.867Z,89.23
2022-09-06T14:00:19.064Z,93.67
2022-09-06T14:02:53.382Z,97.53
2022-09-06T14:05:27.080Z,94.63
2022-09-06T14:08:01.673Z,87.60
2022-09-06T14:10:35.384Z,88.37
2022-09-06T14:13:12.268Z,76.43
2022-09-06T14:15:47.152Z,81.47
2022-09-06T14:18:21.790Z,85.47
2022-09-06T14:21:06.925Z,76.13
2022-09-06T14:23:41.296Z,80.27
2022-09-06T14:29:05.778Z,78.67
2022-09-06T14:31:41.471Z,83.93
2022-09-06T14:34:15.815Z,67.63
2022-09-06T14:36:49.890Z,76.63
2022-09-06T14:39:24.569Z,73.97
2022-09-06T14:44:47.894Z,79.47
2022-09-06T14:47:21.417Z,65.30
2022-09-06T14:49:58.489Z,65.83
2022-09-06T14:52:33.251Z,67.40
2022-09-06T14:55:06.911Z,79.37
2022-09-06T14:57:40.244Z,75.90
2022-09-06T15:00:18.106Z,69.13
2022-09-06T15:02:52.270Z,67.50
2022-09-06T15:05:26.334Z,66.47
2022-09-06T15:08:01.046Z,65.23
2022-09-06T15:10:39.015Z,60.07
2022-09-06T15:13:14.697Z,65.17
2022-09-06T15:18:37.741Z,65.53
2022-09-06T15:21:15.257Z,61.83
2022-09-06T15:23:49.742Z,64.90
2022-09-06T15:26:23.841Z,62.57
2022-09-06T15:28:58.094Z,60.63
2022-09-06T15:31:37.176Z,64.47
2022-09-06T15:34:24.075Z,58.47
2022-09-06T15:39:47.375Z,64.50
2022-09-06T15:42:21.075Z,61.70
2022-09-06T15:44:54.667Z,60.43
2022-09-06T15:47:30.708Z,68.70
2022-09-06T15:50:06.668Z,65.53
2022-09-06T15:52:40.269Z,66.47
2022-09-06T15:55:30.818Z,69.13
2022-09-06T15:58:04.959Z,63.73
2022-09-06T16:00:38.358Z,62.87
2022-09-06T16:03:16.027Z,60.60
2022-09-06T16:08:45.114Z,58.13
2022-09-06T16:11:20.852Z,56.17
2022-09-06T16:13:56.036Z,54.53
2022-09-06T16:16:30.830Z,58.67
2022-09-06T16:19:11.599Z,54.43
2022-09-06T16:21:48.217Z,57.77
2022-09-06T16:24:24.002Z,52.20
2022-09-06T16:27:07.285Z,64.80
2022-09-06T16:30:04.099Z,57.57
2022-09-06T16:32:38.246Z,59.10
2022-09-06T16:35:15.027Z,59.03
2022-09-06T16:37:49.620Z,61.77
2022-09-06T16:40:23.456Z,50.07
2022-09-06T16:42:57.766Z,58.27
2022-09-06T16:45:33.371Z,57.37
2022-09-06T16:48:08.125Z,62.13
2022-09-06T16:50:45.249Z,55.97
2022-09-06T16:53:21.977Z,63.20
2022-09-06T16:55:55.977Z,55.40
2022-09-06T16:58:31.556Z,55.10
2022-09-06T17:01:05.725Z,51.77
2022-09-06T17:03:41.567Z,54.87
2022-09-06T17:06:17.466Z,51.63
2022-09-06T17:08:51.631Z,54.20
2022-09-06T17:11:26.001Z,58.57
2022-09-06T17:14:00.783Z,57.17
2022-09-06T17:19:39.331Z,57.63
2022-09-06T17:22:16.030Z,62.17
2022-09-06T17:24:49.719Z,60.33
2022-09-06T17:27:24.654Z,57.07
2022-09-06T17:30:00.660Z,61.90
2022-09-06T17:32:34.757Z,67.57
2022-09-06T17:35:08.868Z,71.00
2022-09-06T17:37:45.478Z,64.90
2022-09-06T17:40:19.445Z,62.93
2022-09-06T17:42:53.258Z,66.70
2022-09-06T17:45:27.037Z,62.33
2022-09-06T17:48:00.899Z,72.53
2022-09-06T17:50:36.160Z,70.40
2022-09-06T17:53:12.184Z,77.50
2022-09-06T17:55:45.981Z,68.93
2022-09-06T17:58:19.532Z,63.40
2022-09-06T18:00:54.156Z,67.33
2022-09-06T18:03:27.666Z,58.33
2022-09-06T18:06:06.940Z,60.90
2022-09-06T18:11:33.331Z,66.03
2022-09-06T18:14:08.848Z,60.60
2022-09-06T18:16:46.264Z,66.57
2022-09-06T18:19:20.308Z,68.47
2022-09-06T18:21:55.349Z,66.07
2022-09-06T18:24:32.089Z,62.93
2022-09-06T18:27:05.999Z,61.20
2022-09-06T18:29:39.912Z,60.40
2022-09-06T18:32:14.436Z,63.30
2022-09-06T18:34:48.070Z,62.27
2022-09-06T18:37:22.240Z,62.20
2022-09-06T18:39:57.898Z,64.70
2022-09-06T18:42:31.258Z,63.47
2022-09-06T18:45:05.556Z,60.50
2022-09-06T18:47:39.334Z,63.97
2022-09-06T18:50:12.958Z,65.00
2022-09-06T18:52:46.603Z,58.07
2022-09-06T18:55:21.445Z,68.40
2022-09-06T18:57:55.172Z,65.73
2022-09-06T19:00:29.273Z,68.27
2022-09-06T19:05:50.360Z,60.73
2022-09-06T19:08:23.968Z,65.13
2022-09-06T19:13:56.781Z,66.40
2022-09-06T19:16:36.224Z,62.10
2022-09-06T19:19:11.272Z,65.27
2022-09-06T19:21:49.142Z,62.90
2022-09-06T19:24:24.086Z,61.57
2022-09-06T19:27:00.075Z,59.83
2022-09-06T19:29:33.996Z,58.97
2022-09-06T19:32:09.025Z,61.33
2022-09-06T19:34:43.043Z,64.07
2022-09-06T19:37:18.692Z,61.60
2022-09-06T19:39:52.178Z,65.43
2022-09-06T19:42:26.661Z,60.63
2022-09-06T19:45:00.307Z,59.40
2022-09-06T19:47:33.824Z,65.90
2022-09-06T19:50:07.580Z,62.57
2022-09-06T19:52:40.957Z,58.23
2022-09-06T19:55:15.161Z,57.33
2022-09-06T19:57:51.098Z,52.73
2022-09-06T20:00:24.601Z,57.27
2022-09-06T20:02:59.163Z,54.30
2022-09-06T20:05:32.916Z,56.57
2022-09-06T20:08:06.807Z,54.07
2022-09-06T20:10:40.062Z,55.97
2022-09-06T20:13:15.582Z,54.33
2022-09-06T20:15:52.886Z,53.03
2022-09-06T20:18:27.068Z,58.00
2022-09-06T20:21:02.320Z,59.13
2022-09-06T20:26:38.884Z,56.47
2022-09-06T20:29:14.803Z,54.03
2022-09-06T20:31:47.909Z,49.83
2022-09-06T20:34:23.196Z,53.73
2022-09-06T20:36:57.307Z,57.10
2022-09-06T20:39:45.232Z,53.50
2022-09-06T20:42:19.245Z,50.53
2022-09-06T20:44:55.375Z,51.20
2022-09-06T20:47:29.688Z,48.67
2022-09-06T20:50:03.270Z,50.23
2022-09-06T20:52:40.220Z,50.70
2022-09-06T20:55:14.758Z,52.50
2022-09-06T20:57:50.319Z,51.87
2022-09-06T21:00:26.216Z,46.30
2022-09-06T21:02:59.986Z,49.53
2022-09-06T21:05:33.747Z,45.70
2022-09-06T21:08:07.590Z,43.80
2022-09-06T21:10:45.588Z,52.97
2022-09-06T21:13:19.297Z,47.77
2022-09-06T21:15:55.178Z,54.07
2022-09-06T21:18:30.612Z,51.83
2022-09-06T21:21:06.040Z,50.53
2022-09-06T21:23:41.322Z,48.30
2022-09-06T21:26:17.248Z,54.20
2022-09-06T21:28:51.903Z,56.07
2022-09-06T21:31:28.979Z,52.70
2022-09-06T21:34:06.506Z,47.60
2022-09-06T21:36:41.865Z,46.90
2022-09-06T21:39:16.754Z,38.67
2022-09-06T21:41:50.607Z,40.63
2022-09-06T21:44:30.081Z,45.20
2022-09-06T21:47:13.479Z,44.63
2022-09-06T21:49:47.334Z,41.27
2022-09-06T21:52:23.419Z,43.87
2022-09-06T21:54:57.889Z,48.43
2022-09-06T21:57:31.738Z,48.17
2022-09-06T22:00:06.041Z,45.57
2022-09-06T22:02:41.644Z,43.03
2022-09-06T22:05:15.837Z,42.97
2022-09-06T22:10:37.529Z,36.20
2022-09-06T22:13:11.865Z,38.80
2022-09-06T22:15:46.413Z,44.67
2022-09-06T22:18:21.850Z,38.33
2022-09-06T22:21:03.161Z,34.43
2022-09-06T22:23:37.005Z,34.63
2022-09-06T22:29:01.179Z,36.37
2022-09-06T22:31:39.519Z,37.30
2022-09-06T22:34:15.966Z,31.20
2022-09-06T22:36:50.095Z,42.23
2022-09-06T22:39:24.205Z,38.90
2022-09-06T22:41:58.108Z,40.70
2022-09-06T22:44:32.285Z,40.63
2022-09-06T22:47:08.289Z,42.20
2022-09-06T22:49:43.994Z,41.73
2022-09-06T22:52:17.510Z,43.07
2022-09-06T22:54:51.168Z,48.90
2022-09-06T22:57:28.546Z,38.13
2022-09-06T23:00:02.820Z,41.53
2022-09-06T23:02:36.974Z,44.30
2022-09-06T23:05:13.493Z,39.80
2022-09-06T23:07:47.440Z,40.00
2022-09-06T23:10:21.678Z,48.53
2022-09-06T23:12:57.910Z,44.63
2022-09-06T23:15:33.596Z,38.40
2022-09-06T23:18:07.677Z,46.10
2022-09-06T23:20:43.487Z,39.20
2022-09-06T23:23:17.532Z,43.90
2022-09-06T23:25:51.055Z,41.90
2022-09-06T23:28:24.826Z,45.23
2022-09-06T23:30:59.071Z,41.13
2022-09-06T23:36:22.662Z,45.30
2022-09-06T23:38:57.314Z,43.67
2022-09-06T23:41:31.220Z,43.73
2022-09-06T23:44:06.049Z,48.00
2022-09-06T23:46:40.246Z,47.67
2022-09-06T23:49:13.803Z,51.50
2022-09-06T23:51:49.499Z,53.33
2022-09-06T23:54:22.879Z,53.60
2022-09-06T23:56:56.976Z,58.57
2022-09-06T23:59:31.196Z,55.03
